Time,TemperatureF,DewpointF,PressureIn,WindDirection,WindDirectionDegrees,WindSpeedMPH,WindSpeedGustMPH,Humidity,HourlyPrecipIn,Conditions,Clouds,dailyrainin,SolarRadiationWatts/m^2,SoftwareType,DateUTC
2013-02-10 00:05:00,36.4,36.4,30.13,South,184,0.0,3.0,100,0.00,,,0.00,0001,Weather View 32 v70,2013-02-10 08:05:00,
2013-02-10 00:10:00,35.9,35.9,30.13,South,184,0.0,3.0,100,0.00,,,0.00,0001,Weather View 32 v70,2013-02-10 08:10:00,
2013-02-10 00:15:00,35.6,35.6,30.13,South,184,0.0,3.0,100,0.00,,,0.00,0001,Weather View 32 v70,2013-02-10 08:15:00,
2013-02-10 00:20:00,35.5,35.5,30.13,South,184,0.0,3.0,100,0.00,,,0.00,0001,Weather View 32 v70,2013-02-10 08:20:00,
2013-02-10 00:30:00,35.2,35.2,30.13,SW,229,0.0,3.0,100,0.00,,,0.00,0002,Weather View 32 v70,2013-02-10 08:30:00,
2013-02-10 00:35:00,35.3,35.3,30.13,South,184,0.0,3.0,100,0.00,,,0.00,0002,Weather View 32 v70,2013-02-10 08:35:00,
2013-02-10 00:40:00,35.3,35.3,30.13,SSW,207,0.0,3.0,100,0.00,,,0.00,0001,Weather View 32 v70,2013-02-10 08:40:00,
2013-02-10 00:45:00,35.4,35.4,30.13,South,184,0.0,3.0,100,0.00,,,0.00,0001,Weather View 32 v70,2013-02-10 08:45:00,
2013-02-10 00:55:00,35.0,35.0,30.13,South,184,0.0,0.0,100,0.00,,,0.00,0002,Weather View 32 v70,2013-02-10 08:55:00,
2013-02-10 01:00:00,34.9,34.9,30.14,SSE,162,0.0,0.0,100,0.00,,,0.00,0001,Weather View 32 v70,2013-02-10 09:00:00,
2013-02-10 01:05:00,34.9,34.9,30.14,SSW,207,0.0,0.0,100,0.00,,,0.00,0001,Weather View 32 v70,2013-02-10 09:05:00,
2013-02-10 01:10:00,34.9,34.9,30.14,West,274,0.0,0.0,100,0.00,,,0.00,0002,Weather View 32 v70,2013-02-10 09:10:00,
2013-02-10 01:15:00,34.8,34.8,30.14,ESE,117,0.0,0.0,100,0.00,,,0.00,0001,Weather View 32 v70,2013-02-10 09:15:00,
2013-02-10 01:25:00,34.5,34.5,30.14,South,184,0.0,0.0,100,0.00,,,0.00,0002,Weather View 32 v70,2013-02-10 09:25:00,
2013-02-10 01:30:00,34.5,34.5,30.13,West,274,0.0,0.0,100,0.00,,,0.00,0001,Weather View 32 v70,2013-02-10 09:30:00,
2013-02-10 01:35:00,34.4,34.4,30.14,SW,229,0.0,0.0,100,0.00,,,0.00,0001,Weather View 32 v70,2013-02-10 09:35:00,
2013-02-10 01:40:00,34.2,34.2,30.13,South,184,0.0,0.0,100,0.00,,,0.00,0001,Weather View 32 v70,2013-02-10 09:40:00,
2013-02-10 01:45:00,33.8,33.8,30.13,SE,139,0.0,0.0,100,0.00,,,0.00,0001,Weather View 32 v70,2013-02-10 09:45:00,
2013-02-10 01:55:00,33.5,33.5,30.13,SE,139,0.0,0.0,100,0.00,,,0.00,0002,Weather View 32 v70,2013-02-10 09:55:00,
2013-02-10 02:00:00,33.4,33.4,30.14,SSE,162,0.0,0.0,100,0.00,,,0.00,0001,Weather View 32 v70,2013-02-10 10:00:00,
2013-02-10 02:05:00,33.4,33.4,30.13,WSW,252,0.0,0.0,100,0.00,,,0.00,0001,Weather View 32 v70,2013-02-10 10:05:00,
2013-02-10 02:10:00,33.5,33.5,30.13,SE,139,0.0,0.0,100,0.00,,,0.00,0001,Weather View 32 v70,2013-02-10 10:10:00,
2013-02-10 02:20:00,33.3,33.3,30.13,South,184,0.0,0.0,100,0.00,,,0.00,0001,Weather View 32 v70,2013-02-10 10:20:00,
2013-02-10 02:25:00,33.1,33.1,30.13,South,184,0.0,0.0,100,0.00,,,0.00,0001,Weather View 32 v70,2013-02-10 10:25:00,
2013-02-10 02:30:00,33.0,33.0,30.13,SSW,207,0.0,0.0,100,0.00,,,0.00,0001,Weather View 32 v70,2013-02-10 10:30:00,
2013-02-10 02:35:00,33.0,33.0,30.13,SSW,207,0.0,0.0,100,0.00,,,0.00,0001,Weather View 32 v70,2013-02-10 10:35:00,
2013-02-10 02:45:00,33.1,33.1,30.13,SSW,207,0.0,0.0,100,0.00,,,0.00,0001,Weather View 32 v70,2013-02-10 10:45:00,
2013-02-10 02:50:00,33.0,33.0,30.13,South,184,0.0,0.0,100,0.00,,,0.00,0001,Weather View 32 v70,2013-02-10 10:50:00,
2013-02-10 02:55:00,32.9,32.9,30.14,WSW,252,0.0,0.0,100,0.00,,,0.00,0001,Weather View 32 v70,2013-02-10 10:55:00,
2013-02-10 03:00:00,32.9,32.9,30.14,WSW,252,0.0,0.0,100,0.00,,,0.00,0001,Weather View 32 v70,2013-02-10 11:00:00,
2013-02-10 03:05:00,33.0,33.0,30.14,WSW,252,0.0,0.0,100,0.00,,,0.00,0001,Weather View 32 v70,2013-02-10 11:05:00,
2013-02-10 03:15:00,32.8,32.8,30.13,SW,229,0.0,0.0,100,0.00,,,0.00,0001,Weather View 32 v70,2013-02-10 11:15:00,
2013-02-10 03:20:00,32.8,32.8,30.14,SSW,207,0.0,0.0,100,0.00,,,0.00,0001,Weather View 32 v70,2013-02-10 11:20:00,
2013-02-10 03:25:00,32.7,32.7,30.13,SSW,207,0.0,0.0,100,0.00,,,0.00,0001,Weather View 32 v70,2013-02-10 11:25:00,
2013-02-10 03:30:00,32.7,32.7,30.13,SE,139,0.0,0.0,100,0.00,,,0.00,0001,Weather View 32 v70,2013-02-10 11:30:00,
2013-02-10 03:35:00,32.5,32.5,30.13,SSW,207,0.0,0.0,100,0.00,,,0.00,0001,Weather View 32 v70,2013-02-10 11:35:00,
2013-02-10 03:45:00,32.5,32.5,30.13,SSW,207,0.0,0.0,100,0.00,,,0.00,0001,Weather View 32 v70,2013-02-10 11:45:00,
2013-02-10 03:50:00,32.5,32.5,30.13,SSW,207,0.0,0.0,100,0.00,,,0.00,0001,Weather View 32 v70,2013-02-10 11:50:00,
2013-02-10 03:55:00,32.6,32.6,30.13,South,184,0.0,0.0,100,0.00,,,0.00,0001,Weather View 32 v70,2013-02-10 11:55:00,
2013-02-10 04:00:00,32.5,32.5,30.13,SSW,207,0.0,0.0,100,0.00,,,0.00,0001,Weather View 32 v70,2013-02-10 12:00:00,
2013-02-10 04:05:00,32.3,32.3,30.13,South,184,0.0,0.0,100,0.00,,,0.00,0001,Weather View 32 v70,2013-02-10 12:05:00,
2013-02-10 04:15:00,32.0,32.0,30.13,South,184,0.0,0.0,100,0.00,,,0.00,0001,Weather View 32 v70,2013-02-10 12:15:00,
2013-02-10 04:20:00,31.9,31.9,30.13,South,184,0.0,0.0,100,0.00,,,0.00,0001,Weather View 32 v70,2013-02-10 12:20:00,
2013-02-10 04:25:00,31.8,31.8,30.13,SE,139,0.0,0.0,100,0.00,,,0.00,0001,Weather View 32 v70,2013-02-10 12:25:00,
2013-02-10 04:30:00,31.6,31.6,30.13,SSW,207,0.0,0.0,100,0.00,,,0.00,0001,Weather View 32 v70,2013-02-10 12:30:00,
2013-02-10 04:40:00,31.9,31.9,30.14,NE,49,0.0,0.0,100,0.00,,,0.00,0001,Weather View 32 v70,2013-02-10 12:40:00,
2013-02-10 04:47:00,31.8,31.8,30.14,SSW,207,0.0,0.0,100,0.00,,,0.00,0001,Weather View 32 v70,2013-02-10 12:47:00,
2013-02-10 04:55:00,31.6,31.6,30.14,SSE,162,0.0,0.0,100,0.00,,,0.00,0001,Weather View 32 v70,2013-02-10 12:55:00,
2013-02-10 05:00:00,31.5,31.5,30.14,South,184,0.0,0.0,100,0.00,,,0.00,0001,Weather View 32 v70,2013-02-10 13:00:00,
2013-02-10 05:10:00,31.5,31.5,30.14,WSW,252,0.0,0.0,100,0.00,,,0.00,0001,Weather View 32 v70,2013-02-10 13:10:00,
2013-02-10 05:15:00,31.4,31.4,30.14,SSE,162,0.0,0.0,100,0.00,,,0.00,0001,Weather View 32 v70,2013-02-10 13:15:00,
2013-02-10 05:20:00,31.4,31.4,30.14,SW,229,0.0,0.0,100,0.00,,,0.00,0001,Weather View 32 v70,2013-02-10 13:20:00,
2013-02-10 05:25:00,31.4,31.4,30.14,SSW,207,0.0,0.0,100,0.00,,,0.00,0001,Weather View 32 v70,2013-02-10 13:25:00,
2013-02-10 05:35:00,31.4,31.4,30.14,SSW,207,0.0,0.0,100,0.00,,,0.00,0001,Weather View 32 v70,2013-02-10 13:35:00,
2013-02-10 05:40:00,31.4,31.4,30.14,SSW,207,0.0,0.0,100,0.00,,,0.00,0001,Weather View 32 v70,2013-02-10 13:40:00,
2013-02-10 05:45:00,31.5,31.5,30.14,West,274,0.0,0.0,100,0.00,,,0.00,0001,Weather View 32 v70,2013-02-10 13:45:00,
2013-02-10 05:50:00,31.3,31.3,30.14,West,274,0.0,0.0,100,0.00,,,0.00,0001,Weather View 32 v70,2013-02-10 13:50:00,
2013-02-10 05:55:00,31.3,31.3,30.14,West,274,0.0,0.0,100,0.00,,,0.00,0001,Weather View 32 v70,2013-02-10 13:55:00,
2013-02-10 06:05:00,31.2,31.2,30.14,West,274,0.0,0.0,100,0.00,,,0.00,0001,Weather View 32 v70,2013-02-10 14:05:00,
2013-02-10 06:10:00,31.1,31.1,30.14,West,274,0.0,0.0,100,0.00,,,0.00,0001,Weather View 32 v70,2013-02-10 14:10:00,
2013-02-10 06:15:00,31.0,31.0,30.14,West,274,0.0,0.0,100,0.00,,,0.00,0001,Weather View 32 v70,2013-02-10 14:15:00,
2013-02-10 06:25:00,30.7,30.7,30.14,West,274,0.0,0.0,100,0.00,,,0.00,0001,Weather View 32 v70,2013-02-10 14:25:00,
2013-02-10 06:30:00,30.6,30.6,30.15,West,274,0.0,0.0,100,0.00,,,0.00,0002,Weather View 32 v70,2013-02-10 14:30:00,
2013-02-10 06:35:00,30.4,30.4,30.15,West,274,0.0,0.0,100,0.00,,,0.00,0001,Weather View 32 v70,2013-02-10 14:35:00,
2013-02-10 06:40:00,30.4,30.4,30.16,West,274,0.0,0.0,100,0.00,,,0.00,0002,Weather View 32 v70,2013-02-10 14:40:00,
2013-02-10 06:45:00,30.3,30.3,30.15,SW,229,0.0,0.0,100,0.00,,,0.00,0002,Weather View 32 v70,2013-02-10 14:45:00,
2013-02-10 06:55:00,30.5,30.5,30.15,SSW,207,0.0,0.0,100,0.00,,,0.00,0004,Weather View 32 v70,2013-02-10 14:55:00,
2013-02-10 07:00:00,30.6,30.6,30.15,South,184,0.0,0.0,100,0.00,,,0.00,0006,Weather View 32 v70,2013-02-10 15:00:00,
2013-02-10 07:05:00,30.8,30.8,30.15,NW,319,0.0,0.0,100,0.00,,,0.00,0009,Weather View 32 v70,2013-02-10 15:05:00,
2013-02-10 07:10:00,30.8,30.8,30.15,SW,229,0.0,0.0,100,0.00,,,0.00,0015,Weather View 32 v70,2013-02-10 15:10:00,
2013-02-10 07:20:00,31.0,31.0,30.15,NW,319,0.0,1.0,100,0.00,,,0.00,0059,Weather View 32 v70,2013-02-10 15:20:00,
2013-02-10 07:25:00,31.3,31.3,30.15,SE,139,0.0,1.0,100,0.00,,,0.00,0076,Weather View 32 v70,2013-02-10 15:25:00,
2013-02-10 07:30:00,31.9,31.9,30.16,SE,139,0.0,1.0,100,0.00,,,0.00,0091,Weather View 32 v70,2013-02-10 15:30:00,
2013-02-10 07:35:00,32.2,32.2,30.15,SSE,162,0.0,1.0,100,0.00,,,0.00,0105,Weather View 32 v70,2013-02-10 15:35:00,
2013-02-10 07:45:00,33.0,33.0,30.16,West,274,0.0,1.0,100,0.00,,,0.00,0137,Weather View 32 v70,2013-02-10 15:45:00,
2013-02-10 07:50:00,33.8,33.8,30.15,SE,139,0.0,1.0,100,0.00,,,0.00,0150,Weather View 32 v70,2013-02-10 15:50:00,
2013-02-10 07:55:00,34.5,34.5,30.15,South,184,0.0,1.0,100,0.00,,,0.00,0164,Weather View 32 v70,2013-02-10 15:55:00,
2013-02-10 08:00:00,35.1,35.1,30.16,SSE,162,0.0,1.0,100,0.00,,,0.00,0177,Weather View 32 v70,2013-02-10 16:00:00,
2013-02-10 08:05:00,35.8,35.8,30.15,SE,139,0.0,1.0,100,0.00,,,0.00,0190,Weather View 32 v70,2013-02-10 16:05:00,
2013-02-10 08:15:00,36.3,36.3,30.15,ESE,117,1.0,1.0,100,0.00,,,0.00,0218,Weather View 32 v70,2013-02-10 16:15:00,
2013-02-10 08:20:00,36.8,36.8,30.15,ESE,117,0.0,1.0,100,0.00,,,0.00,0232,Weather View 32 v70,2013-02-10 16:20:00,
2013-02-10 08:25:00,37.7,37.7,30.16,SSE,162,0.0,1.0,100,0.00,,,0.00,0241,Weather View 32 v70,2013-02-10 16:25:00,
2013-02-10 08:30:00,38.1,38.1,30.16,ESE,117,0.0,1.0,100,0.00,,,0.00,0256,Weather View 32 v70,2013-02-10 16:30:00,
2013-02-10 08:40:00,39.0,39.0,30.15,ESE,117,0.0,1.0,100,0.00,,,0.00,0272,Weather View 32 v70,2013-02-10 16:40:00,
2013-02-10 08:45:00,39.1,39.1,30.15,SSE,162,0.0,1.0,100,0.00,,,0.00,0191,Weather View 32 v70,2013-02-10 16:45:00,
2013-02-10 08:50:00,38.8,38.8,30.15,SE,139,0.0,3.0,100,0.00,,,0.00,0208,Weather View 32 v70,2013-02-10 16:50:00,
2013-02-10 09:00:00,39.3,39.3,30.15,ESE,117,1.0,3.0,100,0.00,,,0.00,0325,Weather View 32 v70,2013-02-10 17:00:00,
2013-02-10 09:10:00,41.1,41.1,30.15,SE,139,0.0,3.0,100,0.00,,,0.00,0347,Weather View 32 v70,2013-02-10 17:10:00,
2013-02-10 09:15:00,41.7,41.7,30.15,ESE,117,0.0,3.0,100,0.00,,,0.00,0358,Weather View 32 v70,2013-02-10 17:15:00,
2013-02-10 09:20:00,42.2,42.2,30.15,ESE,117,1.0,3.0,100,0.00,,,0.00,0366,Weather View 32 v70,2013-02-10 17:20:00,
2013-02-10 09:25:00,42.8,42.8,30.15,SE,139,1.0,3.0,100,0.00,,,0.00,0381,Weather View 32 v70,2013-02-10 17:25:00,
2013-02-10 09:35:00,42.7,42.7,30.15,NW,319,1.0,3.0,100,0.00,,,0.00,0375,Weather View 32 v70,2013-02-10 17:35:00,
2013-02-10 09:40:00,42.8,42.8,30.15,SSE,162,0.0,3.0,100,0.00,,,0.00,0382,Weather View 32 v70,2013-02-10 17:40:00,
2013-02-10 09:50:00,43.2,42.7,30.15,ENE,72,1.0,3.0,98,0.00,,,0.00,0424,Weather View 32 v70,2013-02-10 17:50:00,
2013-02-10 10:00:00,44.9,43.8,30.15,NNW,342,1.0,3.0,96,0.00,,,0.00,0442,Weather View 32 v70,2013-02-10 18:00:00,
2013-02-10 10:10:00,46.7,44.8,30.14,NE,49,1.0,3.0,93,0.00,,,0.00,0454,Weather View 32 v70,2013-02-10 18:10:00,
2013-02-10 10:15:00,47.2,44.4,30.14,SSE,162,0.0,3.0,90,0.00,,,0.00,0465,Weather View 32 v70,2013-02-10 18:15:00,
2013-02-10 10:20:00,48.5,45.4,30.14,South,184,0.0,3.0,89,0.00,,,0.00,0476,Weather View 32 v70,2013-02-10 18:20:00,
2013-02-10 10:25:00,49.0,45.0,30.14,North,4,2.0,3.0,86,0.00,,,0.00,0482,Weather View 32 v70,2013-02-10 18:25:00,
2013-02-10 10:30:00,48.0,43.1,30.14,North,4,4.0,4.0,83,0.00,,,0.00,0495,Weather View 32 v70,2013-02-10 18:30:00,
2013-02-10 10:40:00,49.3,42.7,30.14,NW,319,4.0,6.0,78,0.00,,,0.00,0514,Weather View 32 v70,2013-02-10 18:40:00,
2013-02-10 10:45:00,49.4,41.8,30.14,NW,319,6.0,6.0,75,0.00,,,0.00,0529,Weather View 32 v70,2013-02-10 18:45:00,
2013-02-10 10:50:00,50.2,42.2,30.14,NW,319,3.0,6.0,74,0.00,,,0.00,0531,Weather View 32 v70,2013-02-10 18:50:00,
2013-02-10 10:55:00,49.8,41.1,30.13,NNW,342,4.0,6.0,72,0.00,,,0.00,0473,Weather View 32 v70,2013-02-10 18:55:00,
2013-02-10 11:05:00,51.4,41.6,30.13,North,4,3.0,6.0,69,0.00,,,0.00,0531,Weather View 32 v70,2013-02-10 19:05:00,
2013-02-10 11:10:00,52.4,41.7,30.13,NNE,27,3.0,6.0,67,0.00,,,0.00,0526,Weather View 32 v70,2013-02-10 19:10:00,
2013-02-10 11:15:00,52.7,41.2,30.13,ENE,72,2.0,6.0,65,0.00,,,0.00,0538,Weather View 32 v70,2013-02-10 19:15:00,
2013-02-10 11:20:00,52.9,41.0,30.12,NNW,342,2.0,6.0,64,0.00,,,0.00,0538,Weather View 32 v70,2013-02-10 19:20:00,
2013-02-10 11:25:00,52.8,40.9,30.12,NW,319,2.0,7.0,64,0.00,,,0.00,0530,Weather View 32 v70,2013-02-10 19:25:00,
2013-02-10 11:35:00,54.0,42.5,30.12,NNE,27,1.0,7.0,65,0.00,,,0.00,0525,Weather View 32 v70,2013-02-10 19:35:00,
2013-02-10 11:40:00,54.1,42.2,30.12,NNW,342,6.0,7.0,64,0.00,,,0.00,0552,Weather View 32 v70,2013-02-10 19:40:00,
2013-02-10 11:45:00,54.4,42.0,30.11,NNW,342,4.0,7.0,63,0.00,,,0.00,0560,Weather View 32 v70,2013-02-10 19:45:00,
2013-02-10 11:52:00,55.2,42.8,30.11,ENE,72,2.0,7.0,63,0.00,,,0.00,0562,Weather View 32 v70,2013-02-10 19:52:00,
2013-02-10 12:00:00,54.8,41.6,30.11,WNW,297,4.0,8.0,61,0.00,,,0.00,0565,Weather View 32 v70,2013-02-10 20:00:00,
2013-02-10 12:10:00,55.5,41.4,30.10,NNE,27,3.0,8.0,59,0.00,,,0.00,0569,Weather View 32 v70,2013-02-10 20:10:00,
2013-02-10 12:15:00,56.1,41.9,30.09,North,4,4.0,9.0,59,0.00,,,0.00,0568,Weather View 32 v70,2013-02-10 20:15:00,
2013-02-10 12:20:00,56.1,41.5,30.09,North,4,3.0,9.0,58,0.00,,,0.00,0571,Weather View 32 v70,2013-02-10 20:20:00,
2013-02-10 12:25:00,56.9,42.7,30.09,ESE,117,2.0,9.0,59,0.00,,,0.00,0570,Weather View 32 v70,2013-02-10 20:25:00,
2013-02-10 12:30:00,56.2,41.1,30.09,WNW,297,5.0,9.0,57,0.00,,,0.00,0569,Weather View 32 v70,2013-02-10 20:30:00,
2013-02-10 12:40:00,55.6,41.0,30.08,NW,319,4.0,9.0,58,0.00,,,0.00,0566,Weather View 32 v70,2013-02-10 20:40:00,
2013-02-10 12:45:00,55.7,41.1,30.08,North,4,5.0,9.0,58,0.00,,,0.00,0566,Weather View 32 v70,2013-02-10 20:45:00,
2013-02-10 12:50:00,56.8,42.6,30.08,ENE,72,1.0,9.0,59,0.00,,,0.00,0568,Weather View 32 v70,2013-02-10 20:50:00,
2013-02-10 12:55:00,56.6,41.5,30.08,West,274,1.0,9.0,57,0.00,,,0.00,0566,Weather View 32 v70,2013-02-10 20:55:00,
2013-02-10 13:00:00,57.0,41.0,30.08,North,4,6.0,9.0,55,0.00,,,0.00,0563,Weather View 32 v70,2013-02-10 21:00:00,
2013-02-10 13:10:00,57.4,40.9,30.07,NNE,27,4.0,9.0,54,0.00,,,0.00,0561,Weather View 32 v70,2013-02-10 21:10:00,
2013-02-10 13:15:00,57.9,41.3,30.07,East,94,1.0,9.0,54,0.00,,,0.00,0557,Weather View 32 v70,2013-02-10 21:15:00,
2013-02-10 13:20:00,58.1,41.0,30.07,ESE,117,2.0,9.0,53,0.00,,,0.00,0554,Weather View 32 v70,2013-02-10 21:20:00,
2013-02-10 13:25:00,58.7,42.1,30.07,ENE,72,4.0,9.0,54,0.00,,,0.00,0551,Weather View 32 v70,2013-02-10 21:25:00,
2013-02-10 13:30:00,59.5,43.3,30.07,SSW,207,1.0,9.0,55,0.00,,,0.00,0545,Weather View 32 v70,2013-02-10 21:30:00,
2013-02-10 13:40:00,59.5,42.8,30.06,SE,139,0.0,9.0,54,0.00,,,0.00,0536,Weather View 32 v70,2013-02-10 21:40:00,
2013-02-10 13:45:00,59.9,42.7,30.06,WSW,252,2.0,9.0,53,0.00,,,0.00,0531,Weather View 32 v70,2013-02-10 21:45:00,
2013-02-10 13:50:00,59.8,42.1,30.06,South,184,2.0,9.0,52,0.00,,,0.00,0525,Weather View 32 v70,2013-02-10 21:50:00,
2013-02-10 13:55:00,58.4,41.3,30.06,NW,319,5.0,9.0,53,0.00,,,0.00,0517,Weather View 32 v70,2013-02-10 21:55:00,
2013-02-10 14:00:00,58.2,41.1,30.06,NW,319,3.0,9.0,53,0.00,,,0.00,0512,Weather View 32 v70,2013-02-10 22:00:00,
2013-02-10 14:10:00,58.6,41.5,30.05,NW,319,4.0,9.0,53,0.00,,,0.00,0500,Weather View 32 v70,2013-02-10 22:10:00,
2013-02-10 14:15:00,58.7,41.6,30.05,North,4,4.0,9.0,53,0.00,,,0.00,0493,Weather View 32 v70,2013-02-10 22:15:00,
2013-02-10 14:20:00,58.4,41.3,30.05,WNW,297,3.0,9.0,53,0.00,,,0.00,0487,Weather View 32 v70,2013-02-10 22:20:00,
2013-02-10 14:25:00,59.1,41.9,30.05,NW,319,2.0,9.0,53,0.00,,,0.00,0479,Weather View 32 v70,2013-02-10 22:25:00,
2013-02-10 14:35:00,59.3,42.1,30.05,WSW,252,3.0,9.0,53,0.00,,,0.00,0463,Weather View 32 v70,2013-02-10 22:35:00,
2013-02-10 14:40:00,59.7,43.0,30.05,North,4,3.0,9.0,54,0.00,,,0.00,0454,Weather View 32 v70,2013-02-10 22:40:00,
2013-02-10 14:45:00,59.2,42.0,30.04,North,4,1.0,9.0,53,0.00,,,0.00,0446,Weather View 32 v70,2013-02-10 22:45:00,
2013-02-10 14:50:00,59.8,42.6,30.04,SE,139,1.0,9.0,53,0.00,,,0.00,0438,Weather View 32 v70,2013-02-10 22:50:00,
2013-02-10 14:55:00,60.0,43.3,30.04,SSE,162,2.0,9.0,54,0.00,,,0.00,0429,Weather View 32 v70,2013-02-10 22:55:00,
2013-02-10 15:05:00,60.6,43.8,30.04,NNW,342,3.0,7.0,54,0.00,,,0.00,0410,Weather View 32 v70,2013-02-10 23:05:00,
2013-02-10 15:10:00,59.4,43.7,30.04,WNW,297,10.0,10.0,56,0.00,,,0.00,0401,Weather View 32 v70,2013-02-10 23:10:00,
2013-02-10 15:15:00,59.1,43.4,30.04,WNW,297,7.0,10.0,56,0.00,,,0.00,0393,Weather View 32 v70,2013-02-10 23:15:00,
2013-02-10 15:20:00,59.0,43.8,30.04,WNW,297,6.0,10.0,57,0.00,,,0.00,0386,Weather View 32 v70,2013-02-10 23:20:00,
2013-02-10 15:25:00,58.6,43.4,30.04,NW,319,7.0,10.0,57,0.00,,,0.00,0374,Weather View 32 v70,2013-02-10 23:25:00,
2013-02-10 15:35:00,58.2,43.9,30.04,West,274,3.0,11.0,59,0.00,,,0.00,0354,Weather View 32 v70,2013-02-10 23:35:00,
2013-02-10 15:40:00,58.3,44.0,30.05,WNW,297,4.0,11.0,59,0.00,,,0.00,0343,Weather View 32 v70,2013-02-10 23:40:00,
2013-02-10 15:45:00,58.9,44.6,30.05,NW,319,7.0,11.0,59,0.00,,,0.00,0332,Weather View 32 v70,2013-02-10 23:45:00,
2013-02-10 15:50:00,58.3,44.0,30.05,NW,319,4.0,11.0,59,0.00,,,0.00,0321,Weather View 32 v70,2013-02-10 23:50:00,
2013-02-10 15:55:00,58.2,43.9,30.05,WNW,297,3.0,11.0,59,0.00,,,0.00,0309,Weather View 32 v70,2013-02-10 23:55:00,
2013-02-10 16:05:00,58.2,43.9,30.05,WNW,297,4.0,11.0,59,0.00,,,0.00,0287,Weather View 32 v70,2013-02-11 00:05:00,
2013-02-10 16:10:00,58.2,43.9,30.05,WNW,297,3.0,11.0,59,0.00,,,0.00,0275,Weather View 32 v70,2013-02-11 00:10:00,
2013-02-10 16:15:00,58.7,44.8,30.05,SSW,207,3.0,11.0,60,0.00,,,0.00,0262,Weather View 32 v70,2013-02-11 00:15:00,
2013-02-10 16:20:00,58.6,45.2,30.04,SW,229,1.0,11.0,61,0.00,,,0.00,0161,Weather View 32 v70,2013-02-11 00:20:00,
2013-02-10 16:30:00,56.0,43.6,30.04,West,274,3.0,10.0,63,0.00,,,0.00,0026,Weather View 32 v70,2013-02-11 00:30:00,
2013-02-10 16:35:00,55.4,44.2,30.04,West,274,3.0,10.0,66,0.00,,,0.00,0025,Weather View 32 v70,2013-02-11 00:35:00,
2013-02-10 16:40:00,55.2,44.4,30.04,West,274,3.0,10.0,67,0.00,,,0.00,0024,Weather View 32 v70,2013-02-11 00:40:00,
2013-02-10 16:45:00,54.7,43.9,30.04,WNW,297,4.0,10.0,67,0.00,,,0.00,0023,Weather View 32 v70,2013-02-11 00:45:00,
2013-02-10 16:50:00,54.6,44.2,30.04,WSW,252,3.0,9.0,68,0.00,,,0.00,0022,Weather View 32 v70,2013-02-11 00:50:00,
2013-02-10 16:55:00,54.6,44.6,30.04,WNW,297,4.0,7.0,69,0.00,,,0.00,0021,Weather View 32 v70,2013-02-11 00:55:00,
2013-02-10 17:05:00,54.2,44.6,30.04,South,184,0.0,6.0,70,0.00,,,0.00,0019,Weather View 32 v70,2013-02-11 01:05:00,
2013-02-10 17:10:00,53.4,44.6,30.04,NNE,27,1.0,6.0,72,0.00,,,0.00,0017,Weather View 32 v70,2013-02-11 01:10:00,
2013-02-10 17:15:00,53.2,44.8,30.04,SW,229,2.0,6.0,73,0.00,,,0.00,0016,Weather View 32 v70,2013-02-11 01:15:00,
2013-02-10 17:20:00,52.7,44.6,30.04,SW,229,2.0,6.0,74,0.00,,,0.00,0015,Weather View 32 v70,2013-02-11 01:20:00,
2013-02-10 17:25:00,53.0,44.6,30.04,SW,229,1.0,6.0,73,0.00,,,0.00,0013,Weather View 32 v70,2013-02-11 01:25:00,
2013-02-10 17:35:00,52.4,44.7,30.04,SW,229,0.0,6.0,75,0.00,,,0.00,0009,Weather View 32 v70,2013-02-11 01:35:00,
2013-02-10 17:40:00,51.5,44.2,30.04,SSW,207,1.0,6.0,76,0.00,,,0.00,0007,Weather View 32 v70,2013-02-11 01:40:00,
2013-02-10 17:45:00,51.3,44.0,30.04,South,184,0.0,6.0,76,0.00,,,0.00,0005,Weather View 32 v70,2013-02-11 01:45:00,
2013-02-10 17:50:00,50.9,43.9,30.04,WSW,252,1.0,6.0,77,0.00,,,0.00,0003,Weather View 32 v70,2013-02-11 01:50:00,
2013-02-10 17:55:00,50.7,44.1,30.04,SSW,207,1.0,6.0,78,0.00,,,0.00,0002,Weather View 32 v70,2013-02-11 01:55:00,
2013-02-10 18:05:00,51.4,44.8,30.05,West,274,1.0,4.0,78,0.00,,,0.00,0002,Weather View 32 v70,2013-02-11 02:05:00,
2013-02-10 18:10:00,51.3,44.7,30.05,SSW,207,2.0,4.0,78,0.00,,,0.00,0001,Weather View 32 v70,2013-02-11 02:10:00,
2013-02-10 18:15:00,51.1,44.5,30.05,SW,229,1.0,4.0,78,0.00,,,0.00,0002,Weather View 32 v70,2013-02-11 02:15:00,
2013-02-10 18:20:00,51.0,44.4,30.05,SSW,207,2.0,4.0,78,0.00,,,0.00,0002,Weather View 32 v70,2013-02-11 02:20:00,
2013-02-10 18:25:00,50.6,44.0,30.05,SSW,207,1.0,4.0,78,0.00,,,0.00,0002,Weather View 32 v70,2013-02-11 02:25:00,
2013-02-10 18:35:00,50.2,43.9,30.05,SSW,207,2.0,4.0,79,0.00,,,0.00,0001,Weather View 32 v70,2013-02-11 02:35:00,
2013-02-10 18:40:00,49.8,43.5,30.06,SSW,207,1.0,4.0,79,0.00,,,0.00,0002,Weather View 32 v70,2013-02-11 02:40:00,
2013-02-10 18:45:00,49.7,43.8,30.06,SSW,207,0.0,4.0,80,0.00,,,0.00,0001,Weather View 32 v70,2013-02-11 02:45:00,
2013-02-10 18:50:00,49.4,43.5,30.06,South,184,0.0,4.0,80,0.00,,,0.00,0001,Weather View 32 v70,2013-02-11 02:50:00,
2013-02-10 18:55:00,48.9,43.3,30.06,SE,139,0.0,4.0,81,0.00,,,0.00,0002,Weather View 32 v70,2013-02-11 02:55:00,
2013-02-10 19:00:00,48.4,43.1,30.06,West,274,0.0,4.0,82,0.00,,,0.00,0001,Weather View 32 v70,2013-02-11 03:00:00,
2013-02-10 19:10:00,47.6,43.3,30.06,West,274,0.0,3.0,85,0.00,,,0.00,0001,Weather View 32 v70,2013-02-11 03:10:00,
2013-02-10 19:15:00,47.2,43.2,30.06,WSW,252,0.0,3.0,86,0.00,,,0.00,0002,Weather View 32 v70,2013-02-11 03:15:00,
2013-02-10 19:20:00,46.9,43.2,30.06,WNW,297,0.0,3.0,87,0.00,,,0.00,0001,Weather View 32 v70,2013-02-11 03:20:00,
2013-02-10 19:25:00,46.8,43.7,30.06,South,184,0.0,3.0,89,0.00,,,0.00,0001,Weather View 32 v70,2013-02-11 03:25:00,
2013-02-10 19:35:00,46.3,43.5,30.06,SSE,162,0.0,2.0,90,0.00,,,0.00,0002,Weather View 32 v70,2013-02-11 03:35:00,
2013-02-10 19:40:00,46.1,43.6,30.06,SSW,207,0.0,2.0,91,0.00,,,0.00,0001,Weather View 32 v70,2013-02-11 03:40:00,
2013-02-10 19:45:00,46.3,43.8,30.07,SSW,207,1.0,3.0,91,0.00,,,0.00,0001,Weather View 32 v70,2013-02-11 03:45:00,
2013-02-10 19:50:00,46.3,43.8,30.06,West,274,1.0,3.0,91,0.00,,,0.00,0002,Weather View 32 v70,2013-02-11 03:50:00,
2013-02-10 19:55:00,46.1,43.6,30.07,South,184,0.0,3.0,91,0.00,,,0.00,0001,Weather View 32 v70,2013-02-11 03:55:00,
2013-02-10 20:00:00,45.9,43.4,30.07,South,184,0.0,3.0,91,0.00,,,0.00,0001,Weather View 32 v70,2013-02-11 04:00:00,
2013-02-10 20:05:00,46.0,43.8,30.07,SSE,162,0.0,3.0,92,0.00,,,0.00,0001,Weather View 32 v70,2013-02-11 04:05:00,
2013-02-10 20:10:00,45.9,43.7,30.07,South,184,0.0,3.0,92,0.00,,,0.00,0002,Weather View 32 v70,2013-02-11 04:10:00,
2013-02-10 20:20:00,45.6,43.7,30.07,ESE,117,0.0,3.0,93,0.00,,,0.00,0002,Weather View 32 v70,2013-02-11 04:20:00,
2013-02-10 20:25:00,45.4,43.5,30.07,South,184,0.0,3.0,93,0.00,,,0.00,0002,Weather View 32 v70,2013-02-11 04:25:00,
2013-02-10 20:30:00,45.2,43.6,30.07,South,184,0.0,3.0,94,0.00,,,0.00,0002,Weather View 32 v70,2013-02-11 04:30:00,
2013-02-10 20:40:00,44.5,43.2,30.08,SE,139,0.0,3.0,95,0.00,,,0.00,0001,Weather View 32 v70,2013-02-11 04:40:00,
2013-02-10 20:45:00,44.3,43.2,30.08,SSW,207,0.0,2.0,96,0.00,,,0.00,0001,Weather View 32 v70,2013-02-11 04:45:00,
2013-02-10 20:50:00,44.2,43.4,30.08,South,184,0.0,2.0,97,0.00,,,0.00,0001,Weather View 32 v70,2013-02-11 04:50:00,
2013-02-10 20:55:00,44.0,43.2,30.08,WSW,252,0.0,0.0,97,0.00,,,0.00,0001,Weather View 32 v70,2013-02-11 04:55:00,
2013-02-10 21:00:00,43.7,43.4,30.08,WSW,252,0.0,0.0,99,0.00,,,0.00,0002,Weather View 32 v70,2013-02-11 05:00:00,
2013-02-10 21:10:00,43.1,43.1,30.08,WSW,252,0.0,0.0,100,0.00,,,0.00,0002,Weather View 32 v70,2013-02-11 05:10:00,
2013-02-10 21:15:00,43.0,43.0,30.08,SSW,207,0.0,0.0,100,0.00,,,0.00,0001,Weather View 32 v70,2013-02-11 05:15:00,
2013-02-10 21:25:00,42.5,42.5,30.08,SW,229,0.0,0.0,100,0.00,,,0.00,0001,Weather View 32 v70,2013-02-11 05:25:00,
2013-02-10 21:30:00,42.4,42.4,30.08,SSW,207,0.0,1.0,100,0.00,,,0.00,0001,Weather View 32 v70,2013-02-11 05:30:00,
2013-02-10 21:35:00,42.3,42.3,30.08,SSW,207,0.0,1.0,100,0.00,,,0.00,0002,Weather View 32 v70,2013-02-11 05:35:00,
2013-02-10 21:40:00,42.2,42.2,30.08,SW,229,0.0,1.0,100,0.00,,,0.00,0001,Weather View 32 v70,2013-02-11 05:40:00,
2013-02-10 21:45:00,42.2,42.2,30.08,South,184,0.0,1.0,100,0.00,,,0.00,0001,Weather View 32 v70,2013-02-11 05:45:00,
2013-02-10 21:55:00,41.9,41.9,30.08,South,184,0.0,1.0,100,0.00,,,0.00,0001,Weather View 32 v70,2013-02-11 05:55:00,
2013-02-10 22:00:00,41.7,41.7,30.08,South,184,0.0,1.0,100,0.00,,,0.00,0002,Weather View 32 v70,2013-02-11 06:00:00,
2013-02-10 22:05:00,41.6,41.6,30.08,South,184,0.0,1.0,100,0.00,,,0.00,0001,Weather View 32 v70,2013-02-11 06:05:00,
2013-02-10 22:10:00,41.6,41.6,30.09,South,184,0.0,1.0,100,0.00,,,0.00,0001,Weather View 32 v70,2013-02-11 06:10:00,
2013-02-10 22:15:00,41.4,41.4,30.09,South,184,0.0,1.0,100,0.00,,,0.00,0001,Weather View 32 v70,2013-02-11 06:15:00,
2013-02-10 22:25:00,41.0,41.0,30.09,South,184,0.0,1.0,100,0.00,,,0.00,0001,Weather View 32 v70,2013-02-11 06:25:00,
2013-02-10 22:35:00,40.5,40.5,30.09,South,184,0.0,0.0,100,0.00,,,0.00,0001,Weather View 32 v70,2013-02-11 06:35:00,
2013-02-10 22:40:00,40.4,40.4,30.09,South,184,0.0,0.0,100,0.00,,,0.00,0001,Weather View 32 v70,2013-02-11 06:40:00,
2013-02-10 22:45:00,40.1,40.1,30.09,South,184,0.0,0.0,100,0.00,,,0.00,0002,Weather View 32 v70,2013-02-11 06:45:00,
2013-02-10 22:55:00,40.3,40.3,30.09,SW,229,0.0,0.0,100,0.00,,,0.00,0001,Weather View 32 v70,2013-02-11 06:55:00,
2013-02-10 23:05:00,39.9,39.9,30.09,SSW,207,0.0,0.0,100,0.00,,,0.00,0001,Weather View 32 v70,2013-02-11 07:05:00,
2013-02-10 23:10:00,39.8,39.8,30.10,SW,229,0.0,0.0,100,0.00,,,0.00,0001,Weather View 32 v70,2013-02-11 07:10:00,
2013-02-10 23:15:00,39.5,39.5,30.10,SSW,207,0.0,0.0,100,0.00,,,0.00,0001,Weather View 32 v70,2013-02-11 07:15:00,
2013-02-10 23:20:00,39.5,39.5,30.10,SW,229,0.0,0.0,100,0.00,,,0.00,0002,Weather View 32 v70,2013-02-11 07:20:00,
2013-02-10 23:30:00,39.8,39.8,30.11,SSW,207,0.0,0.0,100,0.00,,,0.00,0001,Weather View 32 v70,2013-02-11 07:30:00,
2013-02-10 23:35:00,39.7,39.7,30.10,SSW,207,0.0,0.0,100,0.00,,,0.00,0002,Weather View 32 v70,2013-02-11 07:35:00,
2013-02-10 23:40:00,39.9,39.9,30.10,SW,229,0.0,1.0,100,0.00,,,0.00,0001,Weather View 32 v70,2013-02-11 07:40:00,
2013-02-10 23:45:00,40.0,40.0,30.10,SW,229,0.0,1.0,100,0.00,,,0.00,0001,Weather View 32 v70,2013-02-11 07:45:00,
2013-02-10 23:50:00,39.8,39.8,30.10,WSW,252,2.0,3.0,100,0.00,,,0.00,0001,Weather View 32 v70,2013-02-11 07:50:00,
2013-02-10 23:55:00,39.8,39.8,30.10,WSW,252,0.0,3.0,100,0.00,,,0.00,0002,Weather View 32 v70,2013-02-11 07:55:00,